Airfield :
LOGIN :

Register | Disclaimer

   EN    FR    IT 

 










Legend :    VFR   Marginal VFR   IFR   Intensive IFR   Very Intensive IFR
Visi :
Ceiling :
>= 8 km
>= 3000ft
5 to 8 km
1000 to 3000 ft
1500m to 5 km
500 to 1000 ft
800 to 1500m
200 to 500 ft
< 800m
< 200 ft
Symbols :   Thunderstorms  Fog  Heavy snow  Heavy precipitations  Wind > 20 kt
SIGMETs :     Misc.  Thunderstorms  Icing  Turbulence  Mountain Waves  Volcanic Ashes






- Airport Elevation : 117 ft
- IATA code : NWI


EGSH - Norwich

CURRENT METAR :
  • 291120Z 18006KT 110V220 4000 -RADZ BKN004 BKN013 11/10 Q1003 TEMPO RADZ

EXPIRED METARs :
  • 291050Z 18006KT 140V230 4000 -RA BKN004 BKN009 11/10 Q1003 TEMPO RA
  • 291020Z 19008KT 150V240 5000 -DZ SCT004 BKN008 11/10 Q1003 TEMPO DZ BKN004
  • 290950Z 20009KT 140V230 5000 -DZ SCT005 BKN008 11/10 Q1004 TEMPO DZ BKN005
  • 290920Z 20009KT 160V240 9999 SCT004 BKN009 11/09 Q1004 TEMPO 4000 RA BKN004
  • 290850Z 19008KT 140V230 5000 -DZ BKN004 BKN009 10/09 Q1004 TEMPO DZ
  • 290820Z 19009KT 160V230 5000 -DZ SCT005 BKN008 BKN012 10/09 Q1004 TEMPO DZ BKN005
  • 290750Z 19009KT 150V240 3500 -DZ BR SCT006 BKN009 BKN019 10/09 Q1004 TEMPO 6000 BKN010
  • 290720Z 20009KT 160V240 8000 -DZ SCT011 BKN014 10/09 Q1004 TEMPO RA BKN008
  • 290650Z 21009KT 170V240 9999 SCT011 BKN014 11/09 Q1004 TEMPO BKN008
  • 290620Z 21009KT 170V240 9999 BKN014 11/09 Q1005 TEMPO BKN008

TAF AMD TAF EGSH
Valid from the 29 at 09:00 until the 29 at 18:00 UTC


290858Z 2909/2918 21010KT 9999 FEW010 SCT015
TEMPO 2909/2918 4000 RA BR BKN008
PROB30
TEMPO 2909/2918 2000 +RA DZ BKN004
BECMG 2913/2916 27006KT
ATIS : +44 1603 420 640



MET'MAP, your aeronautical weather chart ! - Copyright ORBIFLY December 2007 - Disclaimer

ORBIFLY MET'MAP TEAM :

Programming & Development : Alexandra Zaïnal
Original concept : Baudouin d'Aumeries
Technical & hardware support : Manuel Goepfert
Assistance : Marc-Olivier Méhu




SOURCES & CREDITS :

   NOAA